This is the latest recevied weather packets stored in our database for station/object SA7BGG-5. If no packets are shown the sender has not sent any weather packets the latest 10 day(s).
| Time | Temp. | Humidity | Pressure | Rain* | Wind** | Luminosity | Snow |
|---|---|---|---|---|---|---|---|
| 1777693204 | 3.89° C | 77% | 1026 hPa | - | - | - | - |
| 1777692903 | 3.89° C | 76% | 1026 hPa | - | - | - | - |
| 1777692603 | 3.89° C | 76% | 1026 hPa | - | - | - | - |
| 1777692303 | 3.89° C | 76% | 1026 hPa | - | - | - | - |
| 1777692002 | 3.89° C | 76% | 1026 hPa | - | - | - | - |
| 1777691702 | 3.89° C | 76% | 1026 hPa | - | - | - | - |
| 1777691402 | 3.89° C | 76% | 1026 hPa | - | - | - | - |
| 1777691101 | 3.89° C | 75% | 1026 hPa | - | - | - | - |
| 1777690801 | 3.89° C | 75% | 1026 hPa | - | - | - | - |
| 1777690501 | 3.89° C | 75% | 1026 hPa | - | - | - | - |
| 1777690200 | 3.89° C | 75% | 1026 hPa | - | - | - | - |
| 1777689605 | 4.44° C | 75% | 1026 hPa | - | - | - | - |
| 1777689304 | 4.44° C | 75% | 1026 hPa | - | - | - | - |
| 1777689004 | 4.44° C | 75% | 1026 hPa | - | - | - | - |
| 1777688704 | 4.44° C | 74% | 1026 hPa | - | - | - | - |
| 1777674305 | 9.44° C | 58% | 1028 hPa | - | - | - | - |
| 1777673404 | 10° C | 57% | 1028 hPa | - | - | - | - |
| 1777670105 | 11.67° C | 52% | 1028 hPa | - | - | - | - |
| 1777668003 | 12.22° C | 49% | 1028 hPa | - | - | - | - |
| 1777666501 | 13.33° C | 47% | 1028 hPa | - | - | - | - |
| 1777664404 | 14.44° C | 43% | 1029 hPa | - | - | - | - |
| 1777660500 | 18.33° C | 37% | 1029 hPa | - | - | - | - |
| 1777657503 | 20° C | 34% | 1028 hPa | - | - | - | - |
| 1777656001 | 21.11° C | 34% | 1028 hPa | - | - | - | - |
| 1777652703 | 22.78° C | 33% | 1029 hPa | - | - | - | - |
* Rain since midnight (hover to see other rain measurements)
** Current wind speed in m/s (hover to see current wind gust speed)